createdAt,value
2018-02-25T00:01:16.308Z,38.80
2018-02-25T00:03:43.798Z,39.00
2018-02-25T00:06:11.294Z,39.10
2018-02-25T00:08:38.794Z,39.40
2018-02-25T00:11:07.107Z,39.50
2018-02-25T00:13:34.825Z,39.40
2018-02-25T00:16:02.310Z,39.30
2018-02-25T00:18:29.794Z,39.30
2018-02-25T00:20:57.256Z,39.50
2018-02-25T00:23:25.534Z,40.20
2018-02-25T00:25:53.775Z,39.50
2018-02-25T00:28:21.243Z,39.50
2018-02-25T00:30:48.739Z,39.60
2018-02-25T00:33:16.236Z,39.60
2018-02-25T00:35:43.720Z,39.70
2018-02-25T00:38:11.209Z,39.50
2018-02-25T00:40:38.687Z,39.70
2018-02-25T00:43:06.240Z,39.90
2018-02-25T00:45:33.991Z,40.00
2018-02-25T00:48:01.453Z,40.10
2018-02-25T00:50:28.965Z,40.10
2018-02-25T00:52:56.448Z,40.20
2018-02-25T00:55:23.920Z,40.40
2018-02-25T00:57:51.408Z,40.20
2018-02-25T01:00:18.913Z,40.20
2018-02-25T01:02:47.162Z,40.30
2018-02-25T01:05:15.396Z,40.30
2018-02-25T01:07:42.909Z,40.30
2018-02-25T01:10:11.151Z,40.40
2018-02-25T01:12:38.650Z,40.40
2018-02-25T01:15:06.883Z,40.50
2018-02-25T01:17:34.388Z,40.50
2018-02-25T01:20:01.859Z,40.50
2018-02-25T01:22:29.347Z,40.50
2018-02-25T01:24:56.833Z,40.50
2018-02-25T01:27:25.125Z,40.80
2018-02-25T01:29:53.351Z,40.90
2018-02-25T01:32:20.830Z,40.80
2018-02-25T01:34:48.382Z,41.10
2018-02-25T01:37:15.866Z,41.30
2018-02-25T01:39:43.327Z,41.30
2018-02-25T01:42:10.862Z,41.60
2018-02-25T01:44:38.342Z,41.70
2018-02-25T01:47:06.573Z,41.90
2018-02-25T01:49:34.240Z,41.80
2018-02-25T01:52:01.725Z,42.00
2018-02-25T01:54:29.965Z,42.30
2018-02-25T01:56:57.448Z,42.30
2018-02-25T01:59:25.327Z,42.30
2018-02-25T02:01:52.805Z,42.50
2018-02-25T02:04:20.280Z,42.50
2018-02-25T02:06:47.746Z,42.50
2018-02-25T02:09:15.244Z,42.60
2018-02-25T02:11:42.733Z,42.70
2018-02-25T02:14:10.221Z,42.50
2018-02-25T02:16:37.966Z,42.90
2018-02-25T02:19:05.448Z,42.60
2018-02-25T02:21:33.205Z,42.70
2018-02-25T02:24:00.675Z,42.80
2018-02-25T02:26:28.148Z,42.50
2018-02-25T02:28:56.392Z,42.60
2018-02-25T02:31:23.877Z,42.60
2018-02-25T02:33:52.119Z,42.90
2018-02-25T02:36:19.611Z,42.80
2018-02-25T02:38:47.876Z,43.20
2018-02-25T02:41:16.143Z,42.90
2018-02-25T02:43:44.387Z,42.90
2018-02-25T02:46:11.889Z,42.90
2018-02-25T02:48:40.159Z,43.10
2018-02-25T02:51:08.416Z,43.30
2018-02-25T02:53:35.892Z,43.30
2018-02-25T02:56:04.169Z,43.30
2018-02-25T02:58:31.661Z,43.20
2018-02-25T03:00:59.157Z,43.30
2018-02-25T03:03:26.629Z,43.30
2018-02-25T03:05:54.888Z,43.20
2018-02-25T03:08:22.378Z,43.20
2018-02-25T03:10:49.891Z,43.30
2018-02-25T03:13:17.383Z,43.20
2018-02-25T03:15:44.896Z,43.20
2018-02-25T03:18:12.412Z,43.20
2018-02-25T03:20:39.873Z,43.40
2018-02-25T03:23:07.366Z,43.50
2018-02-25T03:25:34.850Z,43.30
2018-02-25T03:28:03.103Z,44.10
2018-02-25T03:30:30.603Z,43.70
2018-02-25T03:32:58.106Z,43.50
2018-02-25T03:35:25.591Z,43.60
2018-02-25T03:37:53.860Z,43.30
2018-02-25T03:40:21.357Z,43.30
2018-02-25T03:42:48.847Z,43.50
2018-02-25T03:45:16.335Z,43.30
2018-02-25T03:47:43.808Z,43.70
2018-02-25T03:50:12.071Z,43.90
2018-02-25T03:52:40.347Z,43.60
2018-02-25T03:55:08.609Z,43.80
2018-02-25T03:57:36.175Z,43.70
2018-02-25T04:00:03.672Z,43.80
2018-02-25T04:02:31.132Z,43.80
2018-02-25T04:04:58.643Z,44.00
2018-02-25T04:07:26.880Z,44.20
2018-02-25T04:09:54.444Z,44.10
2018-02-25T04:12:21.899Z,44.20
2018-02-25T04:14:49.499Z,44.20
2018-02-25T04:17:17.744Z,44.40
2018-02-25T04:19:45.233Z,44.30
2018-02-25T04:22:13.482Z,44.40
2018-02-25T04:24:40.977Z,44.40
2018-02-25T04:27:08.523Z,44.50
2018-02-25T04:29:36.772Z,44.60
2018-02-25T04:32:04.381Z,44.50
2018-02-25T04:34:31.868Z,44.30
2018-02-25T04:36:59.350Z,44.50
2018-02-25T04:39:27.576Z,44.60
2018-02-25T04:41:55.065Z,44.10
2018-02-25T04:44:22.536Z,43.90
2018-02-25T04:46:50.036Z,43.90
2018-02-25T04:49:17.519Z,43.60
2018-02-25T04:51:45.005Z,43.60
2018-02-25T04:54:12.482Z,43.40
2018-02-25T04:56:40.730Z,43.60
2018-02-25T04:59:08.212Z,43.50
2018-02-25T05:01:35.702Z,43.20
2018-02-25T05:04:03.178Z,43.40
2018-02-25T05:06:30.676Z,43.40
2018-02-25T05:08:58.947Z,43.30
2018-02-25T05:11:27.207Z,43.00
2018-02-25T05:13:54.688Z,43.00
2018-02-25T05:16:22.919Z,43.00
2018-02-25T05:18:50.400Z,43.00
2018-02-25T05:21:18.652Z,43.00
2018-02-25T05:23:46.157Z,42.90
2018-02-25T05:26:13.645Z,42.80
2018-02-25T05:28:41.147Z,42.70
2018-02-25T05:31:08.633Z,42.80
2018-02-25T05:33:36.156Z,42.80
2018-02-25T05:36:04.406Z,42.70
2018-02-25T05:38:31.895Z,42.70
2018-02-25T05:41:00.133Z,42.40
2018-02-25T05:43:27.637Z,42.40
2018-02-25T05:45:55.139Z,42.50
2018-02-25T05:48:22.645Z,42.60
2018-02-25T05:50:50.881Z,42.50
2018-02-25T05:53:18.367Z,42.60
2018-02-25T05:55:46.613Z,42.50
2018-02-25T05:58:14.083Z,42.50
2018-02-25T06:00:42.638Z,43.10
2018-02-25T06:03:10.120Z,42.60
2018-02-25T06:05:37.615Z,42.90
2018-02-25T06:08:05.131Z,42.90
2018-02-25T06:10:32.619Z,42.70
2018-02-25T06:13:00.118Z,42.80
2018-02-25T06:15:27.634Z,42.90
2018-02-25T06:17:55.104Z,42.80
2018-02-25T06:20:22.633Z,43.20
2018-02-25T06:22:50.171Z,43.30
2018-02-25T06:25:17.660Z,42.80
2018-02-25T06:27:45.141Z,42.80
2018-02-25T06:30:12.640Z,42.90
2018-02-25T06:32:40.117Z,42.90
2018-02-25T06:35:08.391Z,43.00
2018-02-25T06:37:36.634Z,43.10
2018-02-25T06:40:04.903Z,42.80
2018-02-25T06:42:32.408Z,42.70
2018-02-25T06:44:59.887Z,42.80
2018-02-25T06:47:27.386Z,42.90
2018-02-25T06:49:55.677Z,42.40
2018-02-25T06:52:23.926Z,41.70
2018-02-25T06:54:51.428Z,41.70
2018-02-25T06:57:18.949Z,41.20
2018-02-25T06:59:46.446Z,40.50
2018-02-25T07:02:13.940Z,39.60
2018-02-25T07:04:41.420Z,39.10
2018-02-25T07:07:08.923Z,38.60
2018-02-25T07:09:36.418Z,38.60
2018-02-25T07:12:03.891Z,37.90
2018-02-25T07:14:31.389Z,37.40
2018-02-25T07:16:58.956Z,36.50
2018-02-25T07:19:26.444Z,36.40
2018-02-25T07:21:53.971Z,35.20
2018-02-25T07:24:21.468Z,34.60
2018-02-25T07:26:48.979Z,33.90
2018-02-25T07:29:17.242Z,32.70
2018-02-25T07:31:44.834Z,32.60
2018-02-25T07:34:12.283Z,32.90
2018-02-25T07:36:40.125Z,33.10
2018-02-25T07:39:07.599Z,32.60
2018-02-25T07:41:35.088Z,32.70
2018-02-25T07:44:04.095Z,33.40
2018-02-25T07:46:33.014Z,33.10
2018-02-25T07:49:00.494Z,32.80
2018-02-25T07:51:27.991Z,32.20
2018-02-25T07:53:55.465Z,31.60
2018-02-25T07:56:23.747Z,30.60
2018-02-25T07:58:52.000Z,29.40
2018-02-25T08:01:19.482Z,29.40
2018-02-25T08:03:46.961Z,29.30
2018-02-25T08:06:14.458Z,28.40
2018-02-25T08:08:41.932Z,28.10
2018-02-25T08:11:10.187Z,27.40
2018-02-25T08:13:37.650Z,27.30
2018-02-25T08:16:05.123Z,26.80
2018-02-25T08:18:33.364Z,27.20
2018-02-25T08:21:00.847Z,27.20
2018-02-25T08:23:28.318Z,26.80
2018-02-25T08:25:55.808Z,28.00
2018-02-25T08:28:23.276Z,28.50
2018-02-25T08:30:50.764Z,28.30
2018-02-25T08:33:19.036Z,28.30
2018-02-25T08:35:46.611Z,28.30
2018-02-25T08:38:14.935Z,27.50
2018-02-25T08:40:42.429Z,27.50
2018-02-25T08:43:11.529Z,26.60
2018-02-25T08:45:39.106Z,26.60
2018-02-25T08:48:06.719Z,26.00
2018-02-25T08:50:34.170Z,25.60
2018-02-25T08:53:01.663Z,23.30
2018-02-25T08:55:29.907Z,22.70
2018-02-25T08:57:57.394Z,22.70
2018-02-25T09:00:25.672Z,23.60
2018-02-25T09:02:53.152Z,23.50
2018-02-25T09:05:20.627Z,23.10
2018-02-25T09:07:48.115Z,23.20
2018-02-25T09:10:15.588Z,22.70
2018-02-25T09:12:43.833Z,21.60
2018-02-25T09:15:11.351Z,21.60
2018-02-25T09:17:38.916Z,21.40
2018-02-25T09:20:06.634Z,21.00
2018-02-25T09:22:34.280Z,21.40
2018-02-25T09:25:01.782Z,21.70
2018-02-25T09:30:23.596Z,21.30
2018-02-25T09:32:51.073Z,21.30
2018-02-25T09:35:18.574Z,21.40
2018-02-25T09:37:46.798Z,21.40
2018-02-25T09:40:14.277Z,21.30
2018-02-25T09:42:41.758Z,21.40
2018-02-25T09:45:10.036Z,20.90
2018-02-25T09:47:38.322Z,20.90
2018-02-25T09:50:06.559Z,20.50
2018-02-25T09:52:34.073Z,20.50
2018-02-25T09:55:01.574Z,19.80
2018-02-25T09:57:29.068Z,19.60
2018-02-25T09:59:56.583Z,20.00
2018-02-25T10:02:24.063Z,19.70
2018-02-25T10:04:52.316Z,19.70
2018-02-25T10:07:19.799Z,19.70
2018-02-25T10:09:48.031Z,18.40
2018-02-25T10:12:15.531Z,18.30
2018-02-25T10:14:43.807Z,17.30
2018-02-25T10:17:11.328Z,17.20
2018-02-25T10:19:38.867Z,16.60
2018-02-25T10:22:06.363Z,17.50
2018-02-25T10:24:34.623Z,19.60
2018-02-25T10:27:02.095Z,19.50
2018-02-25T10:29:30.340Z,19.20
2018-02-25T10:31:57.828Z,19.10
2018-02-25T10:34:26.091Z,18.80
2018-02-25T10:36:53.601Z,18.70
2018-02-25T10:39:21.096Z,18.30
2018-02-25T10:41:48.573Z,18.60
2018-02-25T10:44:16.806Z,17.60
2018-02-25T10:46:44.281Z,17.60
2018-02-25T10:49:11.908Z,17.60
2018-02-25T10:51:39.438Z,17.10
2018-02-25T10:54:06.909Z,17.10
2018-02-25T10:56:34.384Z,17.00
2018-02-25T10:59:01.873Z,16.70
2018-02-25T11:01:29.352Z,16.40
2018-02-25T11:03:56.830Z,17.10
2018-02-25T11:06:24.295Z,17.40
2018-02-25T11:08:51.786Z,17.50
2018-02-25T11:11:19.274Z,18.40
2018-02-25T11:13:46.745Z,19.70
2018-02-25T11:16:14.225Z,19.90
2018-02-25T11:18:41.718Z,20.10
2018-02-25T11:21:09.211Z,20.10
2018-02-25T11:23:36.737Z,20.40
2018-02-25T11:26:04.228Z,20.80
2018-02-25T11:28:31.707Z,21.30
2018-02-25T11:30:59.218Z,21.30
2018-02-25T11:33:27.471Z,21.10
2018-02-25T11:35:54.959Z,21.10
2018-02-25T11:38:23.197Z,21.50
2018-02-25T11:40:50.817Z,21.40
2018-02-25T11:43:18.300Z,21.20
2018-02-25T11:45:45.779Z,21.20
2018-02-25T11:48:13.260Z,23.20
2018-02-25T11:50:40.749Z,24.70
2018-02-25T11:53:08.272Z,24.60
2018-02-25T11:55:35.820Z,24.70
2018-02-25T11:58:03.300Z,24.90
2018-02-25T12:00:30.798Z,24.40
2018-02-25T12:02:58.262Z,24.50
2018-02-25T12:05:25.754Z,24.40
2018-02-25T12:07:53.995Z,25.00
2018-02-25T12:10:21.471Z,24.90
2018-02-25T12:12:49.735Z,25.60
2018-02-25T12:15:17.213Z,25.50
2018-02-25T12:17:45.483Z,25.30
2018-02-25T12:20:13.734Z,25.60
2018-02-25T12:22:41.230Z,25.60
2018-02-25T12:25:08.728Z,26.10
2018-02-25T12:27:36.216Z,25.60
2018-02-25T12:30:04.450Z,25.90
2018-02-25T12:32:31.934Z,25.90
2018-02-25T12:34:59.418Z,26.40
2018-02-25T12:37:26.950Z,26.50
2018-02-25T12:39:54.432Z,26.20
2018-02-25T12:42:22.687Z,26.30
2018-02-25T12:44:50.933Z,26.60
2018-02-25T12:47:18.413Z,26.60
2018-02-25T12:49:45.911Z,26.60
2018-02-25T12:52:13.418Z,26.60
2018-02-25T12:54:40.919Z,26.00
2018-02-25T12:57:08.403Z,25.90
2018-02-25T12:59:35.884Z,25.90
2018-02-25T13:02:03.378Z,26.20
2018-02-25T13:04:30.868Z,26.20
2018-02-25T13:06:58.359Z,26.20
2018-02-25T13:09:25.832Z,26.30
2018-02-25T13:11:53.329Z,26.60
2018-02-25T13:14:20.810Z,26.60
2018-02-25T13:16:48.270Z,25.90
2018-02-25T13:19:15.746Z,26.00
2018-02-25T13:21:43.207Z,26.30
2018-02-25T13:24:11.436Z,26.70
2018-02-25T13:26:38.937Z,26.70
2018-02-25T13:29:07.244Z,26.80
2018-02-25T13:31:34.720Z,26.80
2018-02-25T13:34:02.259Z,26.90
2018-02-25T13:36:29.734Z,26.90
2018-02-25T13:38:57.216Z,26.50
2018-02-25T13:41:24.701Z,26.90
2018-02-25T13:43:52.930Z,26.00
2018-02-25T13:46:20.422Z,26.00
2018-02-25T13:48:47.896Z,26.40
2018-02-25T13:51:15.405Z,26.60
2018-02-25T13:53:42.869Z,26.50
2018-02-25T13:56:10.344Z,26.20
2018-02-25T13:58:38.582Z,26.40
2018-02-25T14:01:06.077Z,26.30
2018-02-25T14:03:34.338Z,26.60
2018-02-25T14:06:01.807Z,26.60
2018-02-25T14:08:30.083Z,27.20
2018-02-25T14:10:58.307Z,27.20
2018-02-25T14:13:25.810Z,27.20
2018-02-25T14:15:53.314Z,27.00
2018-02-25T14:18:20.830Z,26.50
2018-02-25T14:20:49.059Z,26.50
2018-02-25T14:23:16.535Z,26.40
2018-02-25T14:25:44.033Z,26.10
2018-02-25T14:28:11.535Z,25.90
2018-02-25T14:30:39.188Z,25.60
2018-02-25T14:33:06.662Z,25.60
2018-02-25T14:35:34.161Z,26.10
2018-02-25T14:38:01.646Z,26.30
2018-02-25T14:40:29.153Z,26.50
2018-02-25T14:42:57.410Z,26.90
2018-02-25T14:45:24.928Z,26.90
2018-02-25T14:47:52.394Z,26.80
2018-02-25T14:50:19.870Z,26.70
2018-02-25T14:52:47.328Z,26.30
2018-02-25T14:55:14.836Z,26.70
2018-02-25T14:57:42.298Z,26.90
2018-02-25T15:00:09.841Z,26.90
2018-02-25T15:02:37.311Z,26.90
2018-02-25T15:05:04.793Z,26.90
2018-02-25T15:07:32.273Z,27.10
2018-02-25T15:09:59.782Z,27.20
2018-02-25T15:12:27.249Z,27.30
2018-02-25T15:14:54.740Z,27.40
2018-02-25T15:17:23.721Z,27.60
2018-02-25T15:19:51.199Z,27.60
2018-02-25T15:22:18.754Z,27.50
2018-02-25T15:24:46.251Z,27.60
2018-02-25T15:27:13.727Z,27.00
2018-02-25T15:29:41.262Z,27.20
2018-02-25T15:32:09.490Z,27.50
2018-02-25T15:34:36.978Z,27.50
2018-02-25T15:37:04.495Z,27.60
2018-02-25T15:39:31.986Z,27.60
2018-02-25T15:42:00.228Z,27.80
2018-02-25T15:44:28.458Z,27.80
2018-02-25T15:46:55.958Z,27.80
2018-02-25T15:49:23.439Z,27.90
2018-02-25T15:51:51.716Z,28.20
2018-02-25T15:54:19.947Z,28.10
2018-02-25T15:56:47.452Z,28.10
2018-02-25T15:59:15.024Z,28.20
2018-02-25T16:01:43.422Z,27.80
2018-02-25T16:04:10.917Z,27.70
2018-02-25T16:06:38.395Z,27.50
2018-02-25T16:09:05.898Z,27.70
2018-02-25T16:11:33.416Z,27.70
2018-02-25T16:14:01.649Z,28.00
2018-02-25T16:16:29.122Z,27.90
2018-02-25T16:18:57.386Z,29.00
2018-02-25T16:21:24.842Z,28.40
2018-02-25T16:23:52.351Z,28.70
2018-02-25T16:26:19.806Z,28.90
2018-02-25T16:28:47.335Z,29.20
2018-02-25T16:31:15.571Z,29.60
2018-02-25T16:33:43.061Z,29.60
2018-02-25T16:36:11.317Z,30.00
2018-02-25T16:38:39.592Z,30.20
2018-02-25T16:41:07.063Z,30.10
2018-02-25T16:43:35.332Z,30.80
2018-02-25T16:46:02.830Z,30.80
2018-02-25T16:48:30.309Z,30.90
2018-02-25T16:50:57.808Z,31.00
2018-02-25T16:53:26.063Z,30.90
2018-02-25T16:55:53.593Z,30.90
2018-02-25T16:58:21.085Z,31.00
2018-02-25T17:00:49.379Z,31.20
2018-02-25T17:03:17.651Z,31.40
2018-02-25T17:05:45.916Z,31.60
2018-02-25T17:08:14.180Z,31.70
2018-02-25T17:10:41.693Z,31.70
2018-02-25T17:13:09.156Z,31.90
2018-02-25T17:15:36.636Z,31.90
2018-02-25T17:18:05.529Z,32.00
2018-02-25T17:20:33.803Z,32.20
2018-02-25T17:23:01.321Z,32.20
2018-02-25T17:25:28.796Z,32.20
2018-02-25T17:27:56.343Z,32.50
2018-02-25T17:30:23.802Z,32.60
2018-02-25T17:32:52.550Z,33.40
2018-02-25T17:35:20.093Z,32.90
2018-02-25T17:37:47.584Z,33.00
2018-02-25T17:40:15.143Z,33.00
2018-02-25T17:42:42.651Z,32.90
2018-02-25T17:45:11.682Z,33.00
2018-02-25T17:47:39.168Z,32.90
2018-02-25T17:50:06.671Z,33.10
2018-02-25T17:52:34.914Z,33.30
2018-02-25T17:55:02.407Z,33.30
2018-02-25T17:57:30.660Z,33.30
2018-02-25T17:59:58.256Z,33.30
2018-02-25T18:02:25.736Z,33.30
2018-02-25T18:04:53.249Z,33.40
2018-02-25T18:07:21.554Z,33.70
2018-02-25T18:09:49.063Z,33.60
2018-02-25T18:12:16.536Z,33.70
2018-02-25T18:14:44.813Z,33.70
2018-02-25T18:17:13.997Z,33.60
2018-02-25T18:19:42.300Z,33.80
2018-02-25T18:22:09.822Z,33.80
2018-02-25T18:24:37.293Z,34.10
2018-02-25T18:27:04.890Z,34.30
2018-02-25T18:29:32.378Z,34.50
2018-02-25T18:31:59.899Z,34.80
2018-02-25T18:34:27.366Z,35.10
2018-02-25T18:36:54.869Z,36.00
2018-02-25T18:39:22.376Z,36.60
2018-02-25T18:41:49.878Z,36.60
2018-02-25T18:44:17.364Z,36.70
2018-02-25T18:46:45.646Z,36.20
2018-02-25T18:49:13.160Z,36.20
2018-02-25T18:51:40.650Z,36.10
2018-02-25T18:54:08.160Z,36.30
2018-02-25T18:56:35.666Z,36.40
2018-02-25T18:59:03.207Z,36.70
2018-02-25T19:01:30.724Z,36.50
2018-02-25T19:03:58.190Z,36.70
2018-02-25T19:06:25.673Z,36.80
2018-02-25T19:08:53.951Z,37.40
2018-02-25T19:11:22.219Z,37.80
2018-02-25T19:13:50.474Z,38.00
2018-02-25T19:16:17.955Z,38.00
2018-02-25T19:18:46.450Z,38.70
2018-02-25T19:21:13.928Z,38.60
2018-02-25T19:23:41.436Z,38.90
2018-02-25T19:26:08.953Z,39.70
2018-02-25T19:28:36.496Z,40.50
2018-02-25T19:31:03.996Z,41.10
2018-02-25T19:33:31.562Z,42.00
2018-02-25T19:36:04.725Z,42.60
2018-02-25T19:38:37.842Z,43.10
2018-02-25T19:41:11.067Z,43.40
2018-02-25T19:43:38.596Z,43.70
2018-02-25T19:46:06.859Z,45.20
2018-02-25T19:48:34.341Z,45.20
2018-02-25T19:51:03.268Z,45.80
2018-02-25T19:53:30.765Z,45.50
2018-02-25T19:55:58.294Z,45.40
2018-02-25T19:58:25.791Z,45.90
2018-02-25T20:00:54.040Z,45.80
2018-02-25T20:03:21.514Z,45.80
2018-02-25T20:05:49.757Z,45.00
2018-02-25T20:08:17.273Z,45.00
2018-02-25T20:10:44.749Z,45.00
2018-02-25T20:13:12.226Z,45.10
2018-02-25T20:15:39.723Z,45.20
2018-02-25T20:18:08.026Z,45.50
2018-02-25T20:20:35.522Z,45.50
2018-02-25T20:23:02.987Z,45.00
2018-02-25T20:25:30.462Z,45.10
2018-02-25T20:27:58.703Z,45.30
2018-02-25T20:30:26.220Z,45.30
2018-02-25T20:32:53.744Z,45.30
2018-02-25T20:35:22.002Z,45.30
2018-02-25T20:37:49.506Z,45.30
2018-02-25T20:40:17.032Z,45.50
2018-02-25T20:42:45.298Z,45.20
2018-02-25T20:45:14.084Z,45.10
2018-02-25T20:47:41.571Z,45.00
2018-02-25T20:50:09.051Z,45.30
2018-02-25T20:52:36.580Z,45.30
2018-02-25T20:55:04.824Z,45.60
2018-02-25T20:57:33.092Z,45.70
2018-02-25T21:00:00.579Z,45.70
2018-02-25T21:02:28.923Z,46.20
2018-02-25T21:04:56.597Z,46.10
2018-02-25T21:07:24.081Z,46.30
2018-02-25T21:09:51.575Z,46.60
2018-02-25T21:12:19.063Z,47.00
2018-02-25T21:14:46.527Z,47.20
2018-02-25T21:17:14.798Z,47.60
2018-02-25T21:19:42.284Z,47.60
2018-02-25T21:22:09.774Z,47.80
2018-02-25T21:24:37.234Z,48.00
2018-02-25T21:27:04.747Z,48.10
2018-02-25T21:29:32.262Z,48.40
2018-02-25T21:31:59.763Z,48.50
2018-02-25T21:34:27.248Z,48.70
2018-02-25T21:36:54.754Z,49.00
2018-02-25T21:39:23.028Z,49.30
2018-02-25T21:41:51.285Z,49.30
2018-02-25T21:44:18.763Z,49.30
2018-02-25T21:46:47.036Z,49.50
2018-02-25T21:49:15.285Z,49.70
2018-02-25T21:51:42.776Z,49.60
2018-02-25T21:54:16.839Z,50.40
2018-02-25T21:56:50.132Z,50.30
2018-02-25T21:59:23.367Z,50.60
2018-02-25T22:01:57.356Z,51.10
2018-02-25T22:04:25.614Z,51.90
2018-02-25T22:06:53.109Z,51.20
2018-02-25T22:09:20.623Z,51.30
2018-02-25T22:11:48.106Z,51.60
2018-02-25T22:14:15.594Z,51.70
2018-02-25T22:16:43.078Z,51.80
2018-02-25T22:19:10.590Z,52.10
2018-02-25T22:21:38.861Z,52.50
2018-02-25T22:24:07.163Z,52.80
2018-02-25T22:26:34.680Z,52.80
2018-02-25T22:29:02.154Z,53.00
2018-02-25T22:31:30.407Z,53.20
2018-02-25T22:33:58.055Z,53.20
2018-02-25T22:36:25.551Z,53.30
2018-02-25T22:38:53.064Z,53.40
2018-02-25T22:41:20.571Z,53.70
2018-02-25T22:43:48.036Z,54.00
2018-02-25T22:46:15.544Z,54.30
2018-02-25T22:48:43.015Z,54.30
2018-02-25T22:51:11.296Z,54.80
2018-02-25T22:53:39.541Z,55.00
2018-02-25T22:56:07.025Z,54.80
2018-02-25T22:58:35.273Z,55.20
2018-02-25T23:01:02.758Z,55.10
2018-02-25T23:03:31.032Z,56.10
2018-02-25T23:05:58.575Z,56.00
2018-02-25T23:08:26.096Z,56.50
2018-02-25T23:10:53.599Z,56.60
2018-02-25T23:13:21.835Z,56.20
2018-02-25T23:15:49.390Z,56.00
2018-02-25T23:18:16.892Z,56.70
2018-02-25T23:20:45.156Z,56.10
2018-02-25T23:23:13.411Z,56.40
2018-02-25T23:25:40.902Z,56.30
2018-02-25T23:28:08.395Z,56.70
2018-02-25T23:30:35.885Z,56.80
2018-02-25T23:33:03.403Z,56.80
2018-02-25T23:35:30.876Z,57.20
2018-02-25T23:37:58.479Z,57.30
2018-02-25T23:40:26.748Z,56.90
2018-02-25T23:42:55.057Z,56.90
2018-02-25T23:45:22.620Z,56.90
2018-02-25T23:47:50.110Z,57.00
2018-02-25T23:50:17.633Z,57.20
2018-02-25T23:52:45.135Z,57.30
2018-02-25T23:55:12.602Z,57.60
2018-02-25T23:57:40.849Z,57.90
